createdAt,value
2022-09-09T00:01:48.912Z,100144.19
2022-09-09T00:04:34.915Z,100141.81
2022-09-09T00:07:42.819Z,100141.47
2022-09-09T00:10:29.374Z,100138.66
2022-09-09T00:12:58.891Z,100132.28
2022-09-09T00:15:37.587Z,100123.56
2022-09-09T00:18:25.324Z,100130.31
2022-09-09T00:21:03.958Z,100126.62
2022-09-09T00:23:32.225Z,100135.31
2022-09-09T00:26:13.759Z,100147.28
2022-09-09T00:28:46.919Z,100150.69
2022-09-09T00:31:15.970Z,100147.16
2022-09-09T00:33:43.559Z,100148.03
2022-09-09T00:36:17.995Z,100140.88
2022-09-09T00:38:47.823Z,100137.38
2022-09-09T00:41:38.897Z,100139.31
2022-09-09T00:44:36.506Z,100151.19
2022-09-09T00:47:40.698Z,100153.56
2022-09-09T00:50:35.149Z,100148.59
2022-09-09T00:53:20.731Z,100151.78
2022-09-09T00:55:52.453Z,100154.06
2022-09-09T00:58:19.064Z,100149.84
2022-09-09T01:00:46.347Z,100149.00
2022-09-09T01:03:25.460Z,100154.34
2022-09-09T01:06:15.656Z,100151.97
2022-09-09T01:08:47.971Z,100164.25
2022-09-09T01:11:30.333Z,100168.59
2022-09-09T01:14:11.413Z,100173.25
2022-09-09T01:16:38.350Z,100169.31
2022-09-09T01:19:05.057Z,100169.69
2022-09-09T01:21:47.736Z,100175.00
2022-09-09T01:24:28.340Z,100167.47
2022-09-09T01:26:59.487Z,100177.28
2022-09-09T01:29:26.028Z,100179.34
2022-09-09T01:31:55.224Z,100177.03
2022-09-09T01:34:22.156Z,100186.94
2022-09-09T01:37:07.404Z,100184.06
2022-09-09T01:39:34.988Z,100177.66
2022-09-09T01:42:01.692Z,100178.50
2022-09-09T01:44:28.230Z,100178.25
2022-09-09T01:46:54.862Z,100167.72
2022-09-09T01:49:21.322Z,100167.13
2022-09-09T01:51:51.178Z,100169.78
2022-09-09T01:54:17.788Z,100175.09
2022-09-09T01:56:44.187Z,100179.72
2022-09-09T01:59:29.491Z,100190.22
2022-09-09T02:02:11.157Z,100190.47
2022-09-09T02:04:39.439Z,100190.09
2022-09-09T02:07:21.484Z,100174.97
2022-09-09T02:09:48.702Z,100181.28
2022-09-09T02:12:18.331Z,100182.25
2022-09-09T02:14:51.921Z,100179.22
2022-09-09T02:17:22.462Z,100184.53
2022-09-09T02:19:59.373Z,100189.97
2022-09-09T02:22:26.014Z,100199.03
2022-09-09T02:24:54.724Z,100197.22
2022-09-09T02:27:21.465Z,100190.09
2022-09-09T02:29:48.488Z,100192.87
2022-09-09T02:32:23.338Z,100191.56
2022-09-09T02:34:56.291Z,100198.06
2022-09-09T02:37:26.029Z,100190.44
2022-09-09T02:39:52.738Z,100195.06
2022-09-09T02:42:20.060Z,100196.37
2022-09-09T02:44:46.723Z,100191.06
2022-09-09T02:47:17.550Z,100192.41
2022-09-09T02:49:44.476Z,100204.22
2022-09-09T02:52:17.196Z,100192.16
2022-09-09T02:54:44.559Z,100198.81
2022-09-09T02:57:17.195Z,100188.28
2022-09-09T02:59:44.602Z,100199.50
2022-09-09T03:02:12.399Z,100196.59
2022-09-09T03:04:39.765Z,100195.50
2022-09-09T03:07:06.990Z,100191.03
2022-09-09T03:09:36.324Z,100199.87
2022-09-09T03:12:05.317Z,100204.72
2022-09-09T03:14:32.094Z,100203.37
2022-09-09T03:17:01.806Z,100205.56
2022-09-09T03:19:28.883Z,100201.91
2022-09-09T03:21:55.502Z,100211.34
2022-09-09T03:24:23.713Z,100216.78
2022-09-09T03:26:51.598Z,100215.56
2022-09-09T03:29:19.533Z,100217.28
2022-09-09T03:31:46.166Z,100220.63
2022-09-09T03:34:15.212Z,100225.47
2022-09-09T03:36:42.330Z,100229.06
2022-09-09T03:39:08.896Z,100220.37
2022-09-09T03:41:35.515Z,100214.84
2022-09-09T03:44:01.976Z,100213.75
2022-09-09T03:46:28.541Z,100216.87
2022-09-09T03:48:55.228Z,100215.44
2022-09-09T03:51:22.653Z,100215.31
2022-09-09T03:53:49.475Z,100220.44
2022-09-09T03:56:16.237Z,100230.06
2022-09-09T03:58:42.840Z,100235.28
2022-09-09T04:01:11.303Z,100237.97
2022-09-09T04:03:37.983Z,100227.78
2022-09-09T04:06:04.941Z,100227.78
2022-09-09T04:08:32.755Z,100223.87
2022-09-09T04:10:59.570Z,100225.94
2022-09-09T04:13:26.227Z,100225.41
2022-09-09T04:15:55.964Z,100221.38
2022-09-09T04:18:22.915Z,100220.41
2022-09-09T04:20:50.158Z,100228.03
2022-09-09T04:23:17.060Z,100227.28
2022-09-09T04:25:48.542Z,100229.63
2022-09-09T04:28:15.989Z,100229.03
2022-09-09T04:30:43.002Z,100228.88
2022-09-09T04:33:10.580Z,100228.62
2022-09-09T04:35:37.305Z,100223.06
2022-09-09T04:38:03.883Z,100219.22
2022-09-09T04:40:31.025Z,100221.97
2022-09-09T04:43:05.826Z,100221.00
2022-09-09T04:45:32.771Z,100230.69
2022-09-09T04:47:59.366Z,100230.31
2022-09-09T04:50:26.648Z,100221.03
2022-09-09T04:52:53.232Z,100218.62
2022-09-09T04:55:19.896Z,100211.75
2022-09-09T04:57:46.508Z,100215.94
2022-09-09T05:00:14.207Z,100213.28
2022-09-09T05:02:41.099Z,100213.16
2022-09-09T05:05:07.813Z,100223.69
2022-09-09T05:07:34.281Z,100228.28
2022-09-09T05:10:00.856Z,100233.13
2022-09-09T05:12:27.799Z,100232.28
2022-09-09T05:14:54.366Z,100232.78
2022-09-09T05:17:21.291Z,100230.22
2022-09-09T05:19:48.243Z,100232.28
2022-09-09T05:22:22.370Z,100234.22
2022-09-09T05:24:51.815Z,100231.19
2022-09-09T05:27:21.436Z,100226.63
2022-09-09T05:29:49.102Z,100227.72
2022-09-09T05:32:17.232Z,100232.94
2022-09-09T05:34:43.812Z,100238.84
2022-09-09T05:37:10.566Z,100241.22
2022-09-09T05:39:38.015Z,100233.13
2022-09-09T05:42:05.526Z,100240.00
2022-09-09T05:44:32.538Z,100236.84
2022-09-09T05:46:59.179Z,100242.62
2022-09-09T05:49:25.827Z,100238.91
2022-09-09T05:51:52.662Z,100236.31
2022-09-09T05:54:19.316Z,100236.72
2022-09-09T05:56:49.837Z,100241.22
2022-09-09T05:59:18.190Z,100244.13
2022-09-09T06:01:45.289Z,100240.84
2022-09-09T06:04:11.985Z,100235.62
2022-09-09T06:06:40.165Z,100248.97
2022-09-09T06:09:10.472Z,100245.38
2022-09-09T06:11:38.461Z,100245.19
2022-09-09T06:14:05.309Z,100248.38
2022-09-09T06:16:33.722Z,100244.50
2022-09-09T06:19:00.768Z,100243.03
2022-09-09T06:21:31.919Z,100242.56
2022-09-09T06:24:01.095Z,100243.34
2022-09-09T06:26:32.523Z,100237.25
2022-09-09T06:28:59.378Z,100245.84
2022-09-09T06:31:31.644Z,100249.22
2022-09-09T06:33:59.160Z,100238.91
2022-09-09T06:36:27.256Z,100247.72
2022-09-09T06:38:53.848Z,100238.31
2022-09-09T06:41:21.417Z,100239.94
2022-09-09T06:43:49.201Z,100238.75
2022-09-09T06:46:28.891Z,100241.03
2022-09-09T06:49:00.868Z,100242.19
2022-09-09T06:51:29.577Z,100250.66
2022-09-09T06:53:57.572Z,100249.00
2022-09-09T06:56:31.600Z,100241.03
2022-09-09T06:58:59.610Z,100243.87
2022-09-09T07:01:28.027Z,100241.53
2022-09-09T07:03:56.436Z,100250.56
2022-09-09T07:06:30.471Z,100253.16
2022-09-09T07:08:58.825Z,100254.13
2022-09-09T07:11:29.659Z,100252.62
2022-09-09T07:13:56.370Z,100264.06
2022-09-09T07:16:25.934Z,100259.28
2022-09-09T07:18:53.551Z,100263.72
2022-09-09T07:21:21.775Z,100267.03
2022-09-09T07:23:48.351Z,100261.16
2022-09-09T07:26:16.699Z,100265.84
2022-09-09T07:28:43.414Z,100266.31
2022-09-09T07:31:21.606Z,100268.47
2022-09-09T07:33:51.380Z,100265.56
2022-09-09T07:36:22.818Z,100268.53
2022-09-09T07:38:52.592Z,100270.56
2022-09-09T07:41:24.416Z,100270.38
2022-09-09T07:43:51.306Z,100268.00
2022-09-09T07:46:20.377Z,100271.75
2022-09-09T07:48:54.004Z,100264.47
2022-09-09T07:51:23.415Z,100272.25
2022-09-09T07:53:53.427Z,100276.66
2022-09-09T07:56:22.954Z,100272.28
2022-09-09T07:58:49.697Z,100270.94
2022-09-09T08:01:21.668Z,100273.47
2022-09-09T08:03:50.175Z,100266.47
2022-09-09T08:06:18.321Z,100268.31
2022-09-09T08:08:45.004Z,100277.81
2022-09-09T08:11:13.184Z,100273.12
2022-09-09T08:13:40.045Z,100269.78
2022-09-09T08:16:18.323Z,100268.72
2022-09-09T08:18:45.824Z,100274.09
2022-09-09T08:21:14.021Z,100268.69
2022-09-09T08:23:42.243Z,100265.62
2022-09-09T08:26:14.447Z,100267.09
2022-09-09T08:28:41.232Z,100268.56
2022-09-09T08:31:13.104Z,100269.44
2022-09-09T08:33:39.984Z,100267.41
2022-09-09T08:36:07.974Z,100255.81
2022-09-09T08:38:34.857Z,100253.25
2022-09-09T08:41:29.327Z,100248.25
2022-09-09T08:44:12.397Z,100256.63
2022-09-09T08:47:07.615Z,100263.19
2022-09-09T08:49:56.440Z,100266.75
2022-09-09T08:52:38.753Z,100271.03
2022-09-09T08:55:16.747Z,100268.34
2022-09-09T08:57:43.383Z,100267.69
2022-09-09T09:00:11.704Z,100271.22
2022-09-09T09:02:44.958Z,100259.91
2022-09-09T09:05:39.140Z,100261.19
2022-09-09T09:08:33.826Z,100264.50
2022-09-09T09:11:03.372Z,100256.56
2022-09-09T09:14:03.912Z,100256.66
2022-09-09T09:16:49.299Z,100258.41
2022-09-09T09:19:16.846Z,100255.91
2022-09-09T09:21:52.225Z,100255.78
2022-09-09T09:24:23.182Z,100265.59
2022-09-09T09:26:49.817Z,100246.69
2022-09-09T09:29:18.032Z,100250.13
2022-09-09T09:31:57.992Z,100247.22
2022-09-09T09:34:25.404Z,100234.41
2022-09-09T09:36:56.996Z,100238.16
2022-09-09T09:42:20.355Z,100223.56
2022-09-09T09:44:50.330Z,100235.84
2022-09-09T09:47:17.564Z,100231.59
2022-09-09T09:49:54.286Z,100229.28
2022-09-09T09:52:25.269Z,100233.16
2022-09-09T09:54:52.939Z,100238.28
2022-09-09T09:57:19.737Z,100237.75
2022-09-09T09:59:46.763Z,100234.25
2022-09-09T10:02:18.679Z,100235.78
2022-09-09T10:04:46.473Z,100239.22
2022-09-09T10:07:20.967Z,100239.50
2022-09-09T10:09:55.941Z,100229.63
2022-09-09T10:12:54.768Z,100225.72
2022-09-09T10:15:24.110Z,100226.25
2022-09-09T10:18:03.971Z,100234.44
2022-09-09T10:20:40.148Z,100232.03
2022-09-09T10:23:26.457Z,100231.66
2022-09-09T10:26:17.948Z,100228.59
2022-09-09T10:29:04.268Z,100219.28
2022-09-09T10:31:47.785Z,100227.88
2022-09-09T10:34:21.077Z,100218.88
2022-09-09T10:36:50.127Z,100211.13
2022-09-09T10:39:26.470Z,100217.56
2022-09-09T10:41:57.093Z,100208.66
2022-09-09T10:44:29.753Z,100214.97
2022-09-09T10:46:56.294Z,100219.84
2022-09-09T10:49:50.687Z,100216.06
2022-09-09T10:52:43.498Z,100219.44
2022-09-09T10:55:19.158Z,100218.16
2022-09-09T10:57:55.311Z,100220.88
2022-09-09T11:00:22.669Z,100209.75
2022-09-09T11:02:54.144Z,100208.59
2022-09-09T11:05:41.986Z,100206.31
2022-09-09T11:11:04.967Z,100215.97
2022-09-09T11:13:55.367Z,100211.00
2022-09-09T11:16:32.576Z,100210.13
2022-09-09T11:19:20.473Z,100200.38
2022-09-09T11:21:50.762Z,100196.31
2022-09-09T11:24:20.192Z,100203.00
2022-09-09T11:26:53.040Z,100197.19
2022-09-09T11:29:24.083Z,100198.59
2022-09-09T11:31:57.064Z,100193.22
2022-09-09T11:34:46.350Z,100195.78
2022-09-09T11:37:35.227Z,100191.09
2022-09-09T11:40:26.998Z,100199.06
2022-09-09T11:43:10.826Z,100195.50
2022-09-09T11:45:40.167Z,100193.78
2022-09-09T11:48:09.660Z,100192.09
2022-09-09T11:50:37.705Z,100181.00
2022-09-09T11:53:23.947Z,100179.13
2022-09-09T11:56:11.981Z,100178.50
2022-09-09T11:58:41.645Z,100182.87
2022-09-09T12:01:15.908Z,100181.62
2022-09-09T12:03:49.994Z,100180.78
2022-09-09T12:06:21.039Z,100182.28
2022-09-09T12:08:51.251Z,100175.78
2022-09-09T12:11:31.624Z,100179.78
2022-09-09T12:14:02.049Z,100173.06
2022-09-09T12:16:36.384Z,100190.50
2022-09-09T12:19:17.291Z,100196.87
2022-09-09T12:21:53.015Z,100197.47
2022-09-09T12:24:32.066Z,100194.81
2022-09-09T12:27:21.707Z,100195.72
2022-09-09T12:30:12.164Z,100195.78
2022-09-09T12:32:39.106Z,100190.13
2022-09-09T12:35:19.475Z,100183.25
2022-09-09T12:37:50.896Z,100170.88
2022-09-09T12:40:36.225Z,100164.81
2022-09-09T12:43:03.635Z,100163.28
2022-09-09T12:45:32.409Z,100162.37
2022-09-09T12:48:04.663Z,100165.97
2022-09-09T12:50:39.243Z,100162.37
2022-09-09T12:53:30.130Z,100157.66
2022-09-09T12:56:05.043Z,100142.06
2022-09-09T12:58:34.752Z,100146.94
2022-09-09T13:01:02.537Z,100149.06
2022-09-09T13:03:29.436Z,100144.66
2022-09-09T13:06:01.023Z,100136.28
2022-09-09T13:08:27.865Z,100129.59
2022-09-09T13:11:02.918Z,100128.59
2022-09-09T13:13:40.188Z,100118.72
2022-09-09T13:16:27.853Z,100124.53
2022-09-09T13:18:54.541Z,100117.03
2022-09-09T13:21:21.447Z,100117.16
2022-09-09T13:23:51.664Z,100132.97
2022-09-09T13:26:23.815Z,100117.22
2022-09-09T13:28:50.684Z,100120.28
2022-09-09T13:31:30.473Z,100112.41
2022-09-09T13:33:57.114Z,100110.63
2022-09-09T13:36:35.451Z,100122.09
2022-09-09T13:39:03.834Z,100112.03
2022-09-09T13:41:35.735Z,100119.22
2022-09-09T13:44:03.492Z,100109.75
2022-09-09T13:46:36.985Z,100110.63
2022-09-09T13:49:12.593Z,100116.16
2022-09-09T13:51:46.490Z,100106.03
2022-09-09T13:54:14.094Z,100108.06
2022-09-09T13:56:41.045Z,100095.16
2022-09-09T13:59:14.161Z,100095.53
2022-09-09T14:01:40.897Z,100091.22
2022-09-09T14:04:07.663Z,100096.84
2022-09-09T14:06:36.137Z,100086.47
2022-09-09T14:09:02.701Z,100081.53
2022-09-09T14:11:29.334Z,100078.28
2022-09-09T14:13:56.889Z,100070.00
2022-09-09T14:16:23.584Z,100080.53
2022-09-09T14:18:50.392Z,100069.34
2022-09-09T14:21:16.997Z,100063.34
2022-09-09T14:23:43.576Z,100061.56
2022-09-09T14:26:10.176Z,100066.53
2022-09-09T14:28:54.251Z,100070.63
2022-09-09T14:31:23.158Z,100070.44
2022-09-09T14:33:49.788Z,100067.63
2022-09-09T14:36:16.361Z,100072.91
2022-09-09T14:38:43.784Z,100071.91
2022-09-09T14:41:14.421Z,100069.09
2022-09-09T14:43:41.163Z,100061.72
2022-09-09T14:46:08.876Z,100063.81
2022-09-09T14:48:36.223Z,100051.22
2022-09-09T14:51:09.124Z,100058.22
2022-09-09T14:53:35.838Z,100051.09
2022-09-09T14:56:07.783Z,100060.56
2022-09-09T14:58:34.413Z,100064.09
2022-09-09T15:01:08.911Z,100060.94
2022-09-09T15:03:35.624Z,100062.25
2022-09-09T15:06:09.664Z,100063.28
2022-09-09T15:08:41.702Z,100060.00
2022-09-09T15:11:09.312Z,100064.25
2022-09-09T15:13:37.236Z,100067.13
2022-09-09T15:16:11.647Z,100071.37
2022-09-09T15:18:43.653Z,100061.69
2022-09-09T15:21:11.396Z,100068.38
2022-09-09T15:23:38.751Z,100074.06
2022-09-09T15:26:05.859Z,100074.06
2022-09-09T15:28:34.052Z,100064.13
2022-09-09T15:31:00.831Z,100072.16
2022-09-09T15:33:28.114Z,100064.44
2022-09-09T15:35:55.162Z,100065.97
2022-09-09T15:38:21.728Z,100064.44
2022-09-09T15:40:55.518Z,100061.37
2022-09-09T15:43:23.083Z,100060.00
2022-09-09T15:45:52.937Z,100057.00
2022-09-09T15:48:19.552Z,100050.00
2022-09-09T15:50:46.194Z,100056.31
2022-09-09T15:53:12.951Z,100059.69
2022-09-09T15:55:39.497Z,100065.25
2022-09-09T15:58:06.104Z,100055.53
2022-09-09T16:00:32.689Z,100059.06
2022-09-09T16:02:59.320Z,100051.38
2022-09-09T16:05:26.558Z,100054.78
2022-09-09T16:07:53.373Z,100064.66
2022-09-09T16:10:20.004Z,100062.19
2022-09-09T16:12:46.638Z,100059.66
2022-09-09T16:15:13.754Z,100064.19
2022-09-09T16:17:40.364Z,100076.31
2022-09-09T16:20:09.446Z,100079.84
2022-09-09T16:22:36.177Z,100076.50
2022-09-09T16:25:03.930Z,100074.00
2022-09-09T16:27:33.322Z,100078.69
2022-09-09T16:30:02.775Z,100084.56
2022-09-09T16:32:32.005Z,100076.00
2022-09-09T16:34:58.658Z,100072.13
2022-09-09T16:37:25.287Z,100080.06
2022-09-09T16:39:52.212Z,100074.34
2022-09-09T16:42:18.859Z,100085.78
2022-09-09T16:44:45.483Z,100077.87
2022-09-09T16:47:14.893Z,100071.66
2022-09-09T16:49:41.613Z,100079.88
2022-09-09T16:52:08.414Z,100077.66
2022-09-09T16:54:37.636Z,100080.19
2022-09-09T16:57:04.716Z,100082.72
2022-09-09T16:59:32.736Z,100082.72
2022-09-09T17:01:59.412Z,100080.34
2022-09-09T17:04:27.612Z,100083.00
2022-09-09T17:06:54.819Z,100089.72
2022-09-09T17:09:21.814Z,100088.75
2022-09-09T17:11:51.748Z,100089.53
2022-09-09T17:14:18.955Z,100089.34
2022-09-09T17:16:45.620Z,100091.66
2022-09-09T17:19:12.602Z,100094.34
2022-09-09T17:21:49.883Z,100091.66
2022-09-09T17:24:27.531Z,100095.16
2022-09-09T17:26:55.386Z,100094.13
2022-09-09T17:29:22.464Z,100097.63
2022-09-09T17:31:49.043Z,100102.50
2022-09-09T17:34:15.828Z,100088.88
2022-09-09T17:36:42.487Z,100098.44
2022-09-09T17:39:09.149Z,100098.66
2022-09-09T17:41:37.480Z,100094.78
2022-09-09T17:44:04.946Z,100094.09
2022-09-09T17:46:34.948Z,100091.91
2022-09-09T17:49:06.125Z,100092.06
2022-09-09T17:51:32.996Z,100094.37
2022-09-09T17:54:04.753Z,100103.41
2022-09-09T17:56:32.343Z,100104.22
2022-09-09T17:58:59.742Z,100113.12
2022-09-09T18:01:33.163Z,100110.78
2022-09-09T18:04:03.624Z,100110.59
2022-09-09T18:06:35.309Z,100105.22
2022-09-09T18:09:03.978Z,100112.44
2022-09-09T18:11:32.499Z,100103.38
2022-09-09T18:14:02.634Z,100093.19
2022-09-09T18:16:30.848Z,100090.50
2022-09-09T18:18:58.491Z,100104.22
2022-09-09T18:21:27.578Z,100115.41
2022-09-09T18:23:54.196Z,100115.13
2022-09-09T18:26:22.538Z,100120.28
2022-09-09T18:28:53.063Z,100118.63
2022-09-09T18:31:20.922Z,100111.41
2022-09-09T18:33:49.162Z,100113.06
2022-09-09T18:36:17.641Z,100106.16
2022-09-09T18:38:44.239Z,100107.84
2022-09-09T18:41:17.623Z,100112.88
2022-09-09T18:43:44.396Z,100126.62
2022-09-09T18:46:11.686Z,100125.09
2022-09-09T18:48:38.929Z,100133.16
2022-09-09T18:51:06.342Z,100126.78
2022-09-09T18:53:33.657Z,100126.78
2022-09-09T18:56:02.183Z,100117.22
2022-09-09T18:58:29.789Z,100111.69
2022-09-09T19:00:59.236Z,100119.34
2022-09-09T19:03:26.483Z,100124.87
2022-09-09T19:05:53.489Z,100131.38
2022-09-09T19:08:23.104Z,100125.50
2022-09-09T19:10:49.658Z,100117.25
2022-09-09T19:13:17.294Z,100121.34
2022-09-09T19:15:43.926Z,100114.25
2022-09-09T19:18:10.522Z,100119.41
2022-09-09T19:20:37.732Z,100121.00
2022-09-09T19:23:05.262Z,100113.41
2022-09-09T19:25:37.430Z,100111.50
2022-09-09T19:28:04.456Z,100124.34
2022-09-09T19:30:31.012Z,100129.19
2022-09-09T19:32:59.061Z,100126.53
2022-09-09T19:35:25.649Z,100134.84
2022-09-09T19:37:52.225Z,100136.28
2022-09-09T19:40:21.032Z,100145.47
2022-09-09T19:42:48.627Z,100140.53
2022-09-09T19:45:15.240Z,100129.13
2022-09-09T19:47:42.833Z,100128.84
2022-09-09T19:50:09.540Z,100127.44
2022-09-09T19:52:36.098Z,100124.25
2022-09-09T19:55:02.768Z,100130.22
2022-09-09T19:57:30.813Z,100131.19
2022-09-09T19:59:57.510Z,100128.03
2022-09-09T20:02:25.279Z,100126.34
2022-09-09T20:04:51.990Z,100126.09
2022-09-09T20:07:19.224Z,100133.03
2022-09-09T20:09:45.823Z,100135.03
2022-09-09T20:12:12.475Z,100140.69
2022-09-09T20:14:39.972Z,100140.16
2022-09-09T20:17:07.033Z,100143.00
2022-09-09T20:19:34.252Z,100139.03
2022-09-09T20:22:00.856Z,100144.97
2022-09-09T20:24:27.463Z,100146.63
2022-09-09T20:26:54.113Z,100138.16
2022-09-09T20:29:20.712Z,100143.38
2022-09-09T20:31:47.272Z,100153.25
2022-09-09T20:34:19.028Z,100158.03
2022-09-09T20:36:46.065Z,100158.16
2022-09-09T20:39:17.359Z,100151.44
2022-09-09T20:41:45.420Z,100149.03
2022-09-09T20:44:18.855Z,100150.31
2022-09-09T20:46:49.912Z,100149.63
2022-09-09T20:49:18.141Z,100140.91
2022-09-09T20:51:44.905Z,100146.97
2022-09-09T20:54:13.940Z,100142.91
2022-09-09T20:56:42.376Z,100141.53
2022-09-09T20:59:13.053Z,100141.81
2022-09-09T21:01:39.938Z,100139.28
2022-09-09T21:04:06.980Z,100136.88
2022-09-09T21:06:33.560Z,100127.59
2022-09-09T21:08:59.997Z,100125.22
2022-09-09T21:11:26.609Z,100124.91
2022-09-09T21:13:53.073Z,100124.91
2022-09-09T21:16:21.226Z,100121.97
2022-09-09T21:18:50.953Z,100120.00
2022-09-09T21:21:19.363Z,100129.44
2022-09-09T21:23:45.950Z,100122.56
2022-09-09T21:26:13.020Z,100124.53
2022-09-09T21:28:39.639Z,100123.53
2022-09-09T21:31:06.131Z,100127.19
2022-09-09T21:33:33.110Z,100134.38
2022-09-09T21:36:04.086Z,100132.53
2022-09-09T21:38:31.204Z,100135.91
2022-09-09T21:40:57.844Z,100134.06
2022-09-09T21:43:24.262Z,100127.06
2022-09-09T21:45:50.997Z,100130.69
2022-09-09T21:48:18.787Z,100114.66
2022-09-09T21:50:48.593Z,100118.16
2022-09-09T21:53:18.102Z,100118.84
2022-09-09T21:55:46.948Z,100120.12
2022-09-09T21:58:18.236Z,100119.28
2022-09-09T22:00:46.186Z,100104.41
2022-09-09T22:03:15.825Z,100105.09
2022-09-09T22:05:43.137Z,100102.44
2022-09-09T22:08:10.161Z,100105.37
2022-09-09T22:10:40.862Z,100116.06
2022-09-09T22:13:07.772Z,100109.88
2022-09-09T22:15:34.685Z,100114.81
2022-09-09T22:18:04.627Z,100119.88
2022-09-09T22:20:33.407Z,100125.22
2022-09-09T22:23:03.242Z,100124.41
2022-09-09T22:25:35.347Z,100123.00
2022-09-09T22:28:03.084Z,100120.19
2022-09-09T22:30:29.652Z,100118.34
2022-09-09T22:32:56.500Z,100111.16
2022-09-09T22:35:23.084Z,100118.63
2022-09-09T22:37:49.568Z,100110.31
2022-09-09T22:40:16.217Z,100107.25
2022-09-09T22:42:42.848Z,100102.75
2022-09-09T22:45:09.651Z,100104.00
2022-09-09T22:47:36.803Z,100115.00
2022-09-09T22:50:04.410Z,100113.72
2022-09-09T22:52:33.769Z,100108.37
2022-09-09T22:55:00.355Z,100107.94
2022-09-09T22:57:26.822Z,100111.63
2022-09-09T22:59:53.481Z,100101.47
2022-09-09T23:02:22.475Z,100099.09
2022-09-09T23:04:49.067Z,100094.31
2022-09-09T23:07:20.962Z,100095.56
2022-09-09T23:09:47.870Z,100085.56
2022-09-09T23:12:14.916Z,100093.06
2022-09-09T23:14:41.675Z,100087.28
2022-09-09T23:17:08.829Z,100087.28
2022-09-09T23:19:37.074Z,100094.16
2022-09-09T23:22:03.652Z,100093.06
2022-09-09T23:24:30.055Z,100107.38
2022-09-09T23:26:56.612Z,100104.72
2022-09-09T23:29:23.035Z,100104.56
2022-09-09T23:31:49.613Z,100100.91
2022-09-09T23:34:16.030Z,100100.91
2022-09-09T23:36:42.693Z,100112.47
2022-09-09T23:39:09.429Z,100110.06
2022-09-09T23:41:36.235Z,100101.19
2022-09-09T23:44:02.947Z,100105.97
2022-09-09T23:46:30.022Z,100102.03
2022-09-09T23:48:57.505Z,100110.63
2022-09-09T23:51:25.230Z,100115.25
2022-09-09T23:53:53.046Z,100111.59
2022-09-09T23:56:31.623Z,100112.03
2022-09-09T23:58:58.410Z,100108.94
